sensor_id;sensor_type;location;lat;lon;timestamp;temperature;humidity
13409;DHT22;6775;49.574;11.170;2022-10-16T00:01:34;15.50;99.90
13409;DHT22;6775;49.574;11.170;2022-10-16T00:04:03;15.50;99.90
13409;DHT22;6775;49.574;11.170;2022-10-16T00:06:31;15.50;99.90
13409;DHT22;6775;49.574;11.170;2022-10-16T00:09:00;15.50;99.90
13409;DHT22;6775;49.574;11.170;2022-10-16T00:11:31;15.50;99.90
13409;DHT22;6775;49.574;11.170;2022-10-16T00:14:02;15.50;99.90
13409;DHT22;6775;49.574;11.170;2022-10-16T00:16:31;15.50;99.90
13409;DHT22;6775;49.574;11.170;2022-10-16T00:18:59;15.50;99.90
13409;DHT22;6775;49.574;11.170;2022-10-16T00:21:29;15.50;99.90
13409;DHT22;6775;49.574;11.170;2022-10-16T00:23:59;15.50;99.90
13409;DHT22;6775;49.574;11.170;2022-10-16T00:26:30;15.50;99.90
13409;DHT22;6775;49.574;11.170;2022-10-16T00:28:58;15.50;99.90
13409;DHT22;6775;49.574;11.170;2022-10-16T00:31:26;15.50;99.90
13409;DHT22;6775;49.574;11.170;2022-10-16T00:33:55;15.50;99.90
13409;DHT22;6775;49.574;11.170;2022-10-16T00:36:25;15.50;99.90
13409;DHT22;6775;49.574;11.170;2022-10-16T00:38:55;15.50;99.90
13409;DHT22;6775;49.574;11.170;2022-10-16T00:41:25;15.50;99.90
13409;DHT22;6775;49.574;11.170;2022-10-16T00:43:55;15.40;99.90
13409;DHT22;6775;49.574;11.170;2022-10-16T00:46:25;15.40;99.90
13409;DHT22;6775;49.574;11.170;2022-10-16T00:48:59;15.40;99.90
13409;DHT22;6775;49.574;11.170;2022-10-16T00:51:31;15.40;99.90
13409;DHT22;6775;49.574;11.170;2022-10-16T00:54:00;15.40;99.90
13409;DHT22;6775;49.574;11.170;2022-10-16T00:56:28;15.40;99.90
13409;DHT22;6775;49.574;11.170;2022-10-16T00:58:59;15.40;99.90
13409;DHT22;6775;49.574;11.170;2022-10-16T01:01:29;15.40;99.90
13409;DHT22;6775;49.574;11.170;2022-10-16T01:03:57;15.30;99.90
13409;DHT22;6775;49.574;11.170;2022-10-16T01:06:30;15.30;99.90
13409;DHT22;6775;49.574;11.170;2022-10-16T01:09:11;15.30;99.90
13409;DHT22;6775;49.574;11.170;2022-10-16T01:11:46;15.30;99.90
13409;DHT22;6775;49.574;11.170;2022-10-16T01:14:24;15.30;99.90
13409;DHT22;6775;49.574;11.170;2022-10-16T01:17:00;15.30;99.90
13409;DHT22;6775;49.574;11.170;2022-10-16T01:19:50;15.40;99.90
13409;DHT22;6775;49.574;11.170;2022-10-16T01:22:31;15.30;99.90
13409;DHT22;6775;49.574;11.170;2022-10-16T01:25:06;15.30;99.90
13409;DHT22;6775;49.574;11.170;2022-10-16T01:27:39;15.30;99.90
13409;DHT22;6775;49.574;11.170;2022-10-16T01:30:12;15.30;99.90
13409;DHT22;6775;49.574;11.170;2022-10-16T01:32:43;15.30;99.90
13409;DHT22;6775;49.574;11.170;2022-10-16T01:35:18;15.30;99.90
13409;DHT22;6775;49.574;11.170;2022-10-16T01:37:53;15.40;99.90
13409;DHT22;6775;49.574;11.170;2022-10-16T01:40:25;15.40;99.90
13409;DHT22;6775;49.574;11.170;2022-10-16T01:42:58;15.40;99.90
13409;DHT22;6775;49.574;11.170;2022-10-16T01:45:28;15.30;99.90
13409;DHT22;6775;49.574;11.170;2022-10-16T01:47:59;15.40;99.90
13409;DHT22;6775;49.574;11.170;2022-10-16T01:50:31;15.30;99.90
13409;DHT22;6775;49.574;11.170;2022-10-16T01:53:02;15.30;99.90
13409;DHT22;6775;49.574;11.170;2022-10-16T01:55:35;15.40;99.90
13409;DHT22;6775;49.574;11.170;2022-10-16T01:58:07;15.30;99.90
13409;DHT22;6775;49.574;11.170;2022-10-16T02:00:38;15.40;99.90
13409;DHT22;6775;49.574;11.170;2022-10-16T02:03:07;15.30;99.90
13409;DHT22;6775;49.574;11.170;2022-10-16T02:05:39;15.30;99.90
13409;DHT22;6775;49.574;11.170;2022-10-16T02:08:08;15.30;99.90
13409;DHT22;6775;49.574;11.170;2022-10-16T02:10:37;15.30;99.90
13409;DHT22;6775;49.574;11.170;2022-10-16T02:13:10;15.30;99.90
13409;DHT22;6775;49.574;11.170;2022-10-16T02:15:39;15.30;99.90
13409;DHT22;6775;49.574;11.170;2022-10-16T02:18:08;15.30;99.90
13409;DHT22;6775;49.574;11.170;2022-10-16T02:20:43;15.40;99.90
13409;DHT22;6775;49.574;11.170;2022-10-16T02:23:23;15.30;99.90
13409;DHT22;6775;49.574;11.170;2022-10-16T02:25:53;15.40;99.90
13409;DHT22;6775;49.574;11.170;2022-10-16T02:28:26;15.40;99.90
13409;DHT22;6775;49.574;11.170;2022-10-16T02:30:57;15.40;99.90
13409;DHT22;6775;49.574;11.170;2022-10-16T02:33:27;15.40;99.90
13409;DHT22;6775;49.574;11.170;2022-10-16T02:35:57;15.40;99.90
13409;DHT22;6775;49.574;11.170;2022-10-16T02:38:25;15.40;99.90
13409;DHT22;6775;49.574;11.170;2022-10-16T02:40:54;15.40;99.90
13409;DHT22;6775;49.574;11.170;2022-10-16T02:43:24;15.40;99.90
13409;DHT22;6775;49.574;11.170;2022-10-16T02:45:52;15.40;99.90
13409;DHT22;6775;49.574;11.170;2022-10-16T02:48:20;15.40;99.90
13409;DHT22;6775;49.574;11.170;2022-10-16T02:50:48;15.40;99.90
13409;DHT22;6775;49.574;11.170;2022-10-16T02:53:16;15.40;99.90
13409;DHT22;6775;49.574;11.170;2022-10-16T02:55:44;15.40;99.90
13409;DHT22;6775;49.574;11.170;2022-10-16T02:58:12;15.40;99.90
13409;DHT22;6775;49.574;11.170;2022-10-16T03:00:41;15.50;99.90
13409;DHT22;6775;49.574;11.170;2022-10-16T03:03:09;15.40;99.90
13409;DHT22;6775;49.574;11.170;2022-10-16T03:05:37;15.50;99.90
13409;DHT22;6775;49.574;11.170;2022-10-16T03:08:05;15.50;99.90
13409;DHT22;6775;49.574;11.170;2022-10-16T03:10:33;15.50;99.90
13409;DHT22;6775;49.574;11.170;2022-10-16T03:13:01;15.40;99.90
13409;DHT22;6775;49.574;11.170;2022-10-16T03:15:29;15.50;99.90
13409;DHT22;6775;49.574;11.170;2022-10-16T03:17:59;15.50;99.90
13409;DHT22;6775;49.574;11.170;2022-10-16T03:20:27;15.50;99.90
13409;DHT22;6775;49.574;11.170;2022-10-16T03:22:54;15.50;99.90
13409;DHT22;6775;49.574;11.170;2022-10-16T03:25:23;15.50;99.90
13409;DHT22;6775;49.574;11.170;2022-10-16T03:27:51;15.50;99.90
13409;DHT22;6775;49.574;11.170;2022-10-16T03:30:18;15.50;99.90
13409;DHT22;6775;49.574;11.170;2022-10-16T03:32:47;15.40;99.90
13409;DHT22;6775;49.574;11.170;2022-10-16T03:35:16;15.40;99.90
13409;DHT22;6775;49.574;11.170;2022-10-16T03:37:44;15.50;99.90
13409;DHT22;6775;49.574;11.170;2022-10-16T03:40:12;15.40;99.90
13409;DHT22;6775;49.574;11.170;2022-10-16T03:42:40;15.40;99.90
13409;DHT22;6775;49.574;11.170;2022-10-16T03:45:08;15.50;99.90
13409;DHT22;6775;49.574;11.170;2022-10-16T03:47:37;15.50;99.90
13409;DHT22;6775;49.574;11.170;2022-10-16T03:50:06;15.50;99.90
13409;DHT22;6775;49.574;11.170;2022-10-16T03:52:35;15.50;99.90
13409;DHT22;6775;49.574;11.170;2022-10-16T03:55:04;15.50;99.90
13409;DHT22;6775;49.574;11.170;2022-10-16T03:57:32;15.50;99.90
13409;DHT22;6775;49.574;11.170;2022-10-16T04:00:00;15.50;99.90
13409;DHT22;6775;49.574;11.170;2022-10-16T04:02:28;15.50;99.90
13409;DHT22;6775;49.574;11.170;2022-10-16T04:04:55;15.50;99.90
13409;DHT22;6775;49.574;11.170;2022-10-16T04:07:23;15.50;99.90
13409;DHT22;6775;49.574;11.170;2022-10-16T04:09:53;15.50;99.90
13409;DHT22;6775;49.574;11.170;2022-10-16T04:12:21;15.50;99.90
13409;DHT22;6775;49.574;11.170;2022-10-16T04:14:49;15.50;99.90
13409;DHT22;6775;49.574;11.170;2022-10-16T04:17:17;15.50;99.90
13409;DHT22;6775;49.574;11.170;2022-10-16T04:19:45;15.50;99.90
13409;DHT22;6775;49.574;11.170;2022-10-16T04:22:12;15.50;99.90
13409;DHT22;6775;49.574;11.170;2022-10-16T04:24:40;15.50;99.90
13409;DHT22;6775;49.574;11.170;2022-10-16T04:27:10;15.50;99.90
13409;DHT22;6775;49.574;11.170;2022-10-16T04:29:38;15.50;99.90
13409;DHT22;6775;49.574;11.170;2022-10-16T04:32:07;15.50;99.90
13409;DHT22;6775;49.574;11.170;2022-10-16T04:34:36;15.50;99.90
13409;DHT22;6775;49.574;11.170;2022-10-16T04:37:04;15.40;99.90
13409;DHT22;6775;49.574;11.170;2022-10-16T04:39:32;15.40;99.90
13409;DHT22;6775;49.574;11.170;2022-10-16T04:42:00;15.40;99.90
13409;DHT22;6775;49.574;11.170;2022-10-16T04:44:30;15.40;99.90
13409;DHT22;6775;49.574;11.170;2022-10-16T04:46:58;15.40;99.90
13409;DHT22;6775;49.574;11.170;2022-10-16T04:49:26;15.30;99.90
13409;DHT22;6775;49.574;11.170;2022-10-16T04:51:53;15.30;99.90
13409;DHT22;6775;49.574;11.170;2022-10-16T04:54:21;15.30;99.90
13409;DHT22;6775;49.574;11.170;2022-10-16T04:56:49;15.40;99.90
13409;DHT22;6775;49.574;11.170;2022-10-16T04:59:18;15.40;99.90
13409;DHT22;6775;49.574;11.170;2022-10-16T05:01:48;15.30;99.90
13409;DHT22;6775;49.574;11.170;2022-10-16T05:04:16;15.40;99.90
13409;DHT22;6775;49.574;11.170;2022-10-16T05:06:44;15.40;99.90
13409;DHT22;6775;49.574;11.170;2022-10-16T05:09:12;15.40;99.90
13409;DHT22;6775;49.574;11.170;2022-10-16T05:11:40;15.40;99.90
13409;DHT22;6775;49.574;11.170;2022-10-16T05:14:07;15.40;99.90
13409;DHT22;6775;49.574;11.170;2022-10-16T05:16:36;15.40;99.90
13409;DHT22;6775;49.574;11.170;2022-10-16T05:19:05;15.40;99.90
13409;DHT22;6775;49.574;11.170;2022-10-16T05:21:53;15.30;99.90
13409;DHT22;6775;49.574;11.170;2022-10-16T05:24:21;15.30;99.90
13409;DHT22;6775;49.574;11.170;2022-10-16T05:26:49;15.30;99.90
13409;DHT22;6775;49.574;11.170;2022-10-16T05:29:17;15.30;99.90
13409;DHT22;6775;49.574;11.170;2022-10-16T05:31:45;15.30;99.90
13409;DHT22;6775;49.574;11.170;2022-10-16T05:34:14;15.30;99.90
13409;DHT22;6775;49.574;11.170;2022-10-16T05:36:42;15.30;99.90
13409;DHT22;6775;49.574;11.170;2022-10-16T05:39:11;15.30;99.90
13409;DHT22;6775;49.574;11.170;2022-10-16T05:41:41;15.20;99.90
13409;DHT22;6775;49.574;11.170;2022-10-16T05:44:09;15.10;99.90
13409;DHT22;6775;49.574;11.170;2022-10-16T05:46:37;15.20;99.90
13409;DHT22;6775;49.574;11.170;2022-10-16T05:49:04;15.20;99.90
13409;DHT22;6775;49.574;11.170;2022-10-16T05:51:34;15.20;99.90
13409;DHT22;6775;49.574;11.170;2022-10-16T05:54:02;15.20;99.90
13409;DHT22;6775;49.574;11.170;2022-10-16T05:56:29;15.20;99.90
13409;DHT22;6775;49.574;11.170;2022-10-16T05:58:57;15.20;99.90
13409;DHT22;6775;49.574;11.170;2022-10-16T06:01:25;15.20;99.90
13409;DHT22;6775;49.574;11.170;2022-10-16T06:03:53;15.20;99.90
13409;DHT22;6775;49.574;11.170;2022-10-16T06:06:23;15.20;99.90
13409;DHT22;6775;49.574;11.170;2022-10-16T06:08:54;15.30;99.90
13409;DHT22;6775;49.574;11.170;2022-10-16T06:11:24;15.30;99.90
13409;DHT22;6775;49.574;11.170;2022-10-16T06:13:54;15.30;99.90
13409;DHT22;6775;49.574;11.170;2022-10-16T06:16:24;15.30;99.90
13409;DHT22;6775;49.574;11.170;2022-10-16T06:18:53;15.40;99.90
13409;DHT22;6775;49.574;11.170;2022-10-16T06:21:24;15.40;99.90
13409;DHT22;6775;49.574;11.170;2022-10-16T06:23:54;15.40;99.90
13409;DHT22;6775;49.574;11.170;2022-10-16T06:26:23;15.40;99.90
13409;DHT22;6775;49.574;11.170;2022-10-16T06:28:53;15.40;99.90
13409;DHT22;6775;49.574;11.170;2022-10-16T06:31:22;15.40;99.90
13409;DHT22;6775;49.574;11.170;2022-10-16T06:33:54;15.50;99.90
13409;DHT22;6775;49.574;11.170;2022-10-16T06:36:23;15.50;99.90
13409;DHT22;6775;49.574;11.170;2022-10-16T06:38:53;15.50;99.90
13409;DHT22;6775;49.574;11.170;2022-10-16T06:41:22;15.50;99.90
13409;DHT22;6775;49.574;11.170;2022-10-16T06:43:50;15.60;99.90
13409;DHT22;6775;49.574;11.170;2022-10-16T06:46:21;15.60;99.90
13409;DHT22;6775;49.574;11.170;2022-10-16T06:48:49;15.70;99.90
13409;DHT22;6775;49.574;11.170;2022-10-16T06:51:19;15.70;99.90
13409;DHT22;6775;49.574;11.170;2022-10-16T06:53:49;15.80;99.90
13409;DHT22;6775;49.574;11.170;2022-10-16T06:56:34;15.90;99.90
13409;DHT22;6775;49.574;11.170;2022-10-16T06:59:02;15.90;99.90
13409;DHT22;6775;49.574;11.170;2022-10-16T07:01:30;15.90;99.90
13409;DHT22;6775;49.574;11.170;2022-10-16T07:03:58;15.90;99.90
13409;DHT22;6775;49.574;11.170;2022-10-16T07:06:30;15.90;99.90
13409;DHT22;6775;49.574;11.170;2022-10-16T07:09:02;15.90;99.90
13409;DHT22;6775;49.574;11.170;2022-10-16T07:11:30;15.90;99.90
13409;DHT22;6775;49.574;11.170;2022-10-16T07:13:59;15.90;99.90
13409;DHT22;6775;49.574;11.170;2022-10-16T07:16:29;15.90;99.90
13409;DHT22;6775;49.574;11.170;2022-10-16T07:18:58;15.80;99.90
13409;DHT22;6775;49.574;11.170;2022-10-16T07:21:28;15.80;99.90
13409;DHT22;6775;49.574;11.170;2022-10-16T07:23:58;15.80;99.90
13409;DHT22;6775;49.574;11.170;2022-10-16T07:26:28;15.80;99.90
13409;DHT22;6775;49.574;11.170;2022-10-16T07:28:58;15.80;99.90
13409;DHT22;6775;49.574;11.170;2022-10-16T07:31:27;15.80;99.90
13409;DHT22;6775;49.574;11.170;2022-10-16T07:33:58;15.80;99.90
13409;DHT22;6775;49.574;11.170;2022-10-16T07:36:26;15.80;99.90
13409;DHT22;6775;49.574;11.170;2022-10-16T07:38:54;15.80;99.90
13409;DHT22;6775;49.574;11.170;2022-10-16T07:41:26;15.80;99.90
13409;DHT22;6775;49.574;11.170;2022-10-16T07:43:54;15.80;99.90
13409;DHT22;6775;49.574;11.170;2022-10-16T07:46:25;15.80;99.90
13409;DHT22;6775;49.574;11.170;2022-10-16T07:48:53;15.80;99.90
13409;DHT22;6775;49.574;11.170;2022-10-16T07:51:23;15.80;99.90
13409;DHT22;6775;49.574;11.170;2022-10-16T07:53:52;15.80;99.90
13409;DHT22;6775;49.574;11.170;2022-10-16T07:56:21;15.80;99.90
13409;DHT22;6775;49.574;11.170;2022-10-16T07:58:50;15.90;99.90
13409;DHT22;6775;49.574;11.170;2022-10-16T08:01:18;15.90;99.90
13409;DHT22;6775;49.574;11.170;2022-10-16T08:03:49;16.00;99.90
13409;DHT22;6775;49.574;11.170;2022-10-16T08:06:18;16.10;99.90
13409;DHT22;6775;49.574;11.170;2022-10-16T08:08:54;16.20;99.90
13409;DHT22;6775;49.574;11.170;2022-10-16T08:11:22;16.20;99.90
13409;DHT22;6775;49.574;11.170;2022-10-16T08:13:50;16.20;99.90
13409;DHT22;6775;49.574;11.170;2022-10-16T08:16:18;16.30;99.90
13409;DHT22;6775;49.574;11.170;2022-10-16T08:18:48;16.30;99.90
13409;DHT22;6775;49.574;11.170;2022-10-16T08:21:19;16.30;99.90
13409;DHT22;6775;49.574;11.170;2022-10-16T08:23:47;16.30;99.90
13409;DHT22;6775;49.574;11.170;2022-10-16T08:26:24;16.40;99.90
13409;DHT22;6775;49.574;11.170;2022-10-16T08:28:52;16.40;99.90
13409;DHT22;6775;49.574;11.170;2022-10-16T08:31:21;16.40;99.90
13409;DHT22;6775;49.574;11.170;2022-10-16T08:33:50;16.50;99.90
13409;DHT22;6775;49.574;11.170;2022-10-16T08:36:19;16.50;99.90
13409;DHT22;6775;49.574;11.170;2022-10-16T08:38:48;16.70;99.90
13409;DHT22;6775;49.574;11.170;2022-10-16T08:41:27;16.80;99.90
13409;DHT22;6775;49.574;11.170;2022-10-16T08:44:20;17.10;99.90
13409;DHT22;6775;49.574;11.170;2022-10-16T08:46:58;17.50;99.90
13409;DHT22;6775;49.574;11.170;2022-10-16T08:49:32;18.10;99.90
13409;DHT22;6775;49.574;11.170;2022-10-16T08:51:59;18.70;99.90
13409;DHT22;6775;49.574;11.170;2022-10-16T08:54:31;19.00;99.90
13409;DHT22;6775;49.574;11.170;2022-10-16T08:57:09;19.20;99.90
13409;DHT22;6775;49.574;11.170;2022-10-16T08:59:38;19.60;99.90
13409;DHT22;6775;49.574;11.170;2022-10-16T09:02:22;20.00;99.90
13409;DHT22;6775;49.574;11.170;2022-10-16T09:05:03;20.10;99.90
13409;DHT22;6775;49.574;11.170;2022-10-16T09:07:41;20.10;99.90
13409;DHT22;6775;49.574;11.170;2022-10-16T09:10:21;19.90;99.90
13409;DHT22;6775;49.574;11.170;2022-10-16T09:12:55;19.70;99.90
13409;DHT22;6775;49.574;11.170;2022-10-16T09:15:30;19.70;99.90
13409;DHT22;6775;49.574;11.170;2022-10-16T09:18:02;19.70;99.90
13409;DHT22;6775;49.574;11.170;2022-10-16T09:20:42;19.60;99.90
13409;DHT22;6775;49.574;11.170;2022-10-16T09:23:15;19.50;99.90
13409;DHT22;6775;49.574;11.170;2022-10-16T09:25:45;19.30;99.90
13409;DHT22;6775;49.574;11.170;2022-10-16T09:28:14;19.40;99.90
13409;DHT22;6775;49.574;11.170;2022-10-16T09:30:43;19.80;99.90
13409;DHT22;6775;49.574;11.170;2022-10-16T09:33:12;20.10;99.90
13409;DHT22;6775;49.574;11.170;2022-10-16T09:35:44;20.00;99.90
13409;DHT22;6775;49.574;11.170;2022-10-16T09:38:25;19.60;99.90
13409;DHT22;6775;49.574;11.170;2022-10-16T09:40:55;19.40;99.90
13409;DHT22;6775;49.574;11.170;2022-10-16T09:43:33;19.10;99.90
13409;DHT22;6775;49.574;11.170;2022-10-16T09:46:04;18.80;99.90
13409;DHT22;6775;49.574;11.170;2022-10-16T09:48:36;18.70;99.90
13409;DHT22;6775;49.574;11.170;2022-10-16T09:51:17;18.50;99.90
13409;DHT22;6775;49.574;11.170;2022-10-16T09:53:47;18.40;99.90
13409;DHT22;6775;49.574;11.170;2022-10-16T09:56:22;18.30;99.90
13409;DHT22;6775;49.574;11.170;2022-10-16T09:58:51;18.20;99.90
13409;DHT22;6775;49.574;11.170;2022-10-16T10:01:21;18.10;99.90
13409;DHT22;6775;49.574;11.170;2022-10-16T10:03:50;18.10;99.90
13409;DHT22;6775;49.574;11.170;2022-10-16T10:06:24;18.10;99.90
13409;DHT22;6775;49.574;11.170;2022-10-16T10:08:58;18.00;99.90
13409;DHT22;6775;49.574;11.170;2022-10-16T10:11:44;18.00;99.90
13409;DHT22;6775;49.574;11.170;2022-10-16T10:14:24;18.00;99.90
13409;DHT22;6775;49.574;11.170;2022-10-16T10:17:06;18.00;99.90
13409;DHT22;6775;49.574;11.170;2022-10-16T10:19:38;18.00;99.90
13409;DHT22;6775;49.574;11.170;2022-10-16T10:22:17;18.10;99.90
13409;DHT22;6775;49.574;11.170;2022-10-16T10:24:54;18.20;99.90
13409;DHT22;6775;49.574;11.170;2022-10-16T10:27:27;18.30;99.90
13409;DHT22;6775;49.574;11.170;2022-10-16T10:30:02;18.40;99.90
13409;DHT22;6775;49.574;11.170;2022-10-16T10:32:42;18.60;99.90
13409;DHT22;6775;49.574;11.170;2022-10-16T10:35:15;18.70;99.90
13409;DHT22;6775;49.574;11.170;2022-10-16T10:38:02;18.80;99.90
13409;DHT22;6775;49.574;11.170;2022-10-16T10:40:40;18.80;99.90
13409;DHT22;6775;49.574;11.170;2022-10-16T10:43:21;18.90;99.90
13409;DHT22;6775;49.574;11.170;2022-10-16T10:45:59;18.90;99.90
13409;DHT22;6775;49.574;11.170;2022-10-16T10:48:44;19.10;99.90
13409;DHT22;6775;49.574;11.170;2022-10-16T10:51:21;19.30;99.90
13409;DHT22;6775;49.574;11.170;2022-10-16T10:54:02;19.40;99.90
13409;DHT22;6775;49.574;11.170;2022-10-16T10:56:45;19.60;99.90
13409;DHT22;6775;49.574;11.170;2022-10-16T10:59:34;19.60;99.90
13409;DHT22;6775;49.574;11.170;2022-10-16T11:02:13;19.60;99.90
13409;DHT22;6775;49.574;11.170;2022-10-16T11:07:40;19.40;99.90
13409;DHT22;6775;49.574;11.170;2022-10-16T11:10:17;19.30;99.90
13409;DHT22;6775;49.574;11.170;2022-10-16T11:12:48;19.50;99.90
13409;DHT22;6775;49.574;11.170;2022-10-16T11:15:19;19.80;99.90
13409;DHT22;6775;49.574;11.170;2022-10-16T11:17:52;20.00;99.90
13409;DHT22;6775;49.574;11.170;2022-10-16T11:20:24;20.10;99.90
13409;DHT22;6775;49.574;11.170;2022-10-16T11:22:54;20.10;99.90
13409;DHT22;6775;49.574;11.170;2022-10-16T11:25:27;19.90;99.90
13409;DHT22;6775;49.574;11.170;2022-10-16T11:27:59;19.90;99.90
13409;DHT22;6775;49.574;11.170;2022-10-16T11:30:30;19.80;99.90
13409;DHT22;6775;49.574;11.170;2022-10-16T11:33:10;19.90;99.90
13409;DHT22;6775;49.574;11.170;2022-10-16T11:35:48;20.00;99.90
13409;DHT22;6775;49.574;11.170;2022-10-16T11:38:25;20.30;99.90
13409;DHT22;6775;49.574;11.170;2022-10-16T11:40:59;20.90;99.90
13409;DHT22;6775;49.574;11.170;2022-10-16T11:43:32;21.30;99.90
13409;DHT22;6775;49.574;11.170;2022-10-16T11:46:04;21.50;99.90
13409;DHT22;6775;49.574;11.170;2022-10-16T11:48:39;21.50;99.90
13409;DHT22;6775;49.574;11.170;2022-10-16T11:51:15;21.50;99.90
13409;DHT22;6775;49.574;11.170;2022-10-16T11:53:49;21.50;99.90
13409;DHT22;6775;49.574;11.170;2022-10-16T11:56:21;21.50;99.90
13409;DHT22;6775;49.574;11.170;2022-10-16T11:58:54;21.60;99.90
13409;DHT22;6775;49.574;11.170;2022-10-16T12:01:30;21.60;99.90
13409;DHT22;6775;49.574;11.170;2022-10-16T12:04:11;21.60;99.90
13409;DHT22;6775;49.574;11.170;2022-10-16T12:06:44;21.50;99.90
13409;DHT22;6775;49.574;11.170;2022-10-16T12:09:20;21.80;99.90
13409;DHT22;6775;49.574;11.170;2022-10-16T12:11:50;22.20;99.90
13409;DHT22;6775;49.574;11.170;2022-10-16T12:14:22;23.10;99.90
13409;DHT22;6775;49.574;11.170;2022-10-16T12:17:25;24.50;99.90
13409;DHT22;6775;49.574;11.170;2022-10-16T12:20:00;27.10;99.90
13409;DHT22;6775;49.574;11.170;2022-10-16T12:22:29;29.00;99.90
13409;DHT22;6775;49.574;11.170;2022-10-16T12:24:58;30.70;98.00
13409;DHT22;6775;49.574;11.170;2022-10-16T12:27:30;32.30;94.10
13409;DHT22;6775;49.574;11.170;2022-10-16T12:30:02;33.70;89.60
13409;DHT22;6775;49.574;11.170;2022-10-16T12:32:34;34.40;80.40
13409;DHT22;6775;49.574;11.170;2022-10-16T12:35:20;34.90;74.00
13409;DHT22;6775;49.574;11.170;2022-10-16T12:37:50;35.00;71.30
13409;DHT22;6775;49.574;11.170;2022-10-16T12:40:27;34.80;71.10
13409;DHT22;6775;49.574;11.170;2022-10-16T12:42:57;34.20;68.70
13409;DHT22;6775;49.574;11.170;2022-10-16T12:45:30;34.40;69.60
13409;DHT22;6775;49.574;11.170;2022-10-16T12:48:00;34.90;66.60
13409;DHT22;6775;49.574;11.170;2022-10-16T12:50:32;35.50;66.30
13409;DHT22;6775;49.574;11.170;2022-10-16T12:53:01;35.70;62.70
13409;DHT22;6775;49.574;11.170;2022-10-16T12:55:35;35.70;62.10
13409;DHT22;6775;49.574;11.170;2022-10-16T12:58:23;35.90;61.40
13409;DHT22;6775;49.574;11.170;2022-10-16T13:00:57;35.50;59.40
13409;DHT22;6775;49.574;11.170;2022-10-16T13:03:47;35.50;61.30
13409;DHT22;6775;49.574;11.170;2022-10-16T13:06:30;35.70;61.50
13409;DHT22;6775;49.574;11.170;2022-10-16T13:09:23;36.30;60.00
13409;DHT22;6775;49.574;11.170;2022-10-16T13:12:15;35.30;60.80
13409;DHT22;6775;49.574;11.170;2022-10-16T13:14:58;33.20;62.80
13409;DHT22;6775;49.574;11.170;2022-10-16T13:17:36;31.10;68.20
13409;DHT22;6775;49.574;11.170;2022-10-16T13:20:15;29.50;74.90
13409;DHT22;6775;49.574;11.170;2022-10-16T13:22:55;28.10;79.30
13409;DHT22;6775;49.574;11.170;2022-10-16T13:25:31;27.00;82.90
13409;DHT22;6775;49.574;11.170;2022-10-16T13:28:06;26.10;86.30
13409;DHT22;6775;49.574;11.170;2022-10-16T13:30:39;25.40;89.90
13409;DHT22;6775;49.574;11.170;2022-10-16T13:33:13;25.00;91.40
13409;DHT22;6775;49.574;11.170;2022-10-16T13:35:48;24.90;92.90
13409;DHT22;6775;49.574;11.170;2022-10-16T13:38:18;24.80;92.80
13409;DHT22;6775;49.574;11.170;2022-10-16T13:40:54;24.70;93.00
13409;DHT22;6775;49.574;11.170;2022-10-16T13:43:26;24.80;94.10
13409;DHT22;6775;49.574;11.170;2022-10-16T13:45:59;25.20;94.40
13409;DHT22;6775;49.574;11.170;2022-10-16T13:48:29;25.50;94.10
13409;DHT22;6775;49.574;11.170;2022-10-16T13:51:01;25.70;94.00
13409;DHT22;6775;49.574;11.170;2022-10-16T13:53:31;25.70;94.00
13409;DHT22;6775;49.574;11.170;2022-10-16T13:56:00;25.50;94.40
13409;DHT22;6775;49.574;11.170;2022-10-16T13:58:29;25.00;95.30
13409;DHT22;6775;49.574;11.170;2022-10-16T14:00:59;24.70;96.90
13409;DHT22;6775;49.574;11.170;2022-10-16T14:03:28;24.40;98.00
13409;DHT22;6775;49.574;11.170;2022-10-16T14:06:00;24.20;98.80
13409;DHT22;6775;49.574;11.170;2022-10-16T14:08:29;24.00;99.80
13409;DHT22;6775;49.574;11.170;2022-10-16T14:10:59;23.70;99.90
13409;DHT22;6775;49.574;11.170;2022-10-16T14:13:34;23.60;99.90
13409;DHT22;6775;49.574;11.170;2022-10-16T14:16:08;23.40;99.90
13409;DHT22;6775;49.574;11.170;2022-10-16T14:18:38;23.20;99.90
13409;DHT22;6775;49.574;11.170;2022-10-16T14:21:11;23.00;99.90
13409;DHT22;6775;49.574;11.170;2022-10-16T14:23:40;22.80;99.90
13409;DHT22;6775;49.574;11.170;2022-10-16T14:26:16;22.60;99.90
13409;DHT22;6775;49.574;11.170;2022-10-16T14:28:45;22.50;99.90
13409;DHT22;6775;49.574;11.170;2022-10-16T14:31:26;22.40;99.90
13409;DHT22;6775;49.574;11.170;2022-10-16T14:33:55;22.20;99.90
13409;DHT22;6775;49.574;11.170;2022-10-16T14:36:23;22.10;99.90
13409;DHT22;6775;49.574;11.170;2022-10-16T14:39:00;22.00;99.90
13409;DHT22;6775;49.574;11.170;2022-10-16T14:41:30;21.80;99.90
13409;DHT22;6775;49.574;11.170;2022-10-16T14:44:02;21.70;99.90
13409;DHT22;6775;49.574;11.170;2022-10-16T14:46:34;21.50;99.90
13409;DHT22;6775;49.574;11.170;2022-10-16T14:49:12;21.20;99.90
13409;DHT22;6775;49.574;11.170;2022-10-16T14:51:42;21.10;99.90
13409;DHT22;6775;49.574;11.170;2022-10-16T14:54:11;20.90;99.90
13409;DHT22;6775;49.574;11.170;2022-10-16T14:56:46;20.80;99.90
13409;DHT22;6775;49.574;11.170;2022-10-16T14:59:19;20.70;99.90
13409;DHT22;6775;49.574;11.170;2022-10-16T15:01:48;20.70;99.90
13409;DHT22;6775;49.574;11.170;2022-10-16T15:04:16;20.60;99.90
13409;DHT22;6775;49.574;11.170;2022-10-16T15:06:45;20.60;99.90
13409;DHT22;6775;49.574;11.170;2022-10-16T15:09:13;20.60;99.90
13409;DHT22;6775;49.574;11.170;2022-10-16T15:11:41;20.50;99.90
13409;DHT22;6775;49.574;11.170;2022-10-16T15:14:11;20.50;99.90
13409;DHT22;6775;49.574;11.170;2022-10-16T15:16:41;20.40;99.90
13409;DHT22;6775;49.574;11.170;2022-10-16T15:19:11;20.30;99.90
13409;DHT22;6775;49.574;11.170;2022-10-16T15:21:39;20.20;99.90
13409;DHT22;6775;49.574;11.170;2022-10-16T15:24:09;20.20;99.90
13409;DHT22;6775;49.574;11.170;2022-10-16T15:26:45;20.20;99.90
13409;DHT22;6775;49.574;11.170;2022-10-16T15:29:13;20.20;99.90
13409;DHT22;6775;49.574;11.170;2022-10-16T15:31:41;20.10;99.90
13409;DHT22;6775;49.574;11.170;2022-10-16T15:34:11;20.00;99.90
13409;DHT22;6775;49.574;11.170;2022-10-16T15:36:40;19.90;99.90
13409;DHT22;6775;49.574;11.170;2022-10-16T15:39:12;19.90;99.90
13409;DHT22;6775;49.574;11.170;2022-10-16T15:41:41;19.80;99.90
13409;DHT22;6775;49.574;11.170;2022-10-16T15:48:22;19.70;99.90
13409;DHT22;6775;49.574;11.170;2022-10-16T15:50:52;19.60;99.90
13409;DHT22;6775;49.574;11.170;2022-10-16T15:53:20;19.60;99.90
13409;DHT22;6775;49.574;11.170;2022-10-16T15:55:48;19.50;99.90
13409;DHT22;6775;49.574;11.170;2022-10-16T15:58:16;19.50;99.90
13409;DHT22;6775;49.574;11.170;2022-10-16T16:00:44;19.50;99.90
13409;DHT22;6775;49.574;11.170;2022-10-16T16:03:11;19.40;99.90
13409;DHT22;6775;49.574;11.170;2022-10-16T16:05:39;19.20;99.90